sensor_id;sensor_type;location;lat;lon;timestamp;temperature;humidity
3156;DHT22;1588;50.892;7.082;2023-03-01T00:03:58;-2.70;99.90
3156;DHT22;1588;50.892;7.082;2023-03-01T00:09:15;-2.80;99.90
3156;DHT22;1588;50.892;7.082;2023-03-01T00:14:19;-2.80;99.90
3156;DHT22;1588;50.892;7.082;2023-03-01T00:19:21;-2.70;99.90
3156;DHT22;1588;50.892;7.082;2023-03-01T00:24:33;-2.80;99.90
3156;DHT22;1588;50.892;7.082;2023-03-01T00:29:48;-2.80;99.90
3156;DHT22;1588;50.892;7.082;2023-03-01T00:34:56;-2.90;99.90
3156;DHT22;1588;50.892;7.082;2023-03-01T00:40:07;-3.00;99.90
3156;DHT22;1588;50.892;7.082;2023-03-01T00:45:14;-3.10;99.90
3156;DHT22;1588;50.892;7.082;2023-03-01T00:50:20;-3.10;99.90
3156;DHT22;1588;50.892;7.082;2023-03-01T00:55:34;-3.10;99.90
3156;DHT22;1588;50.892;7.082;2023-03-01T01:00:41;-3.20;99.90
3156;DHT22;1588;50.892;7.082;2023-03-01T01:05:56;-3.30;99.90
3156;DHT22;1588;50.892;7.082;2023-03-01T01:11:00;-3.30;99.90
3156;DHT22;1588;50.892;7.082;2023-03-01T01:16:03;-3.40;99.90
3156;DHT22;1588;50.892;7.082;2023-03-01T01:21:07;-3.40;99.90
3156;DHT22;1588;50.892;7.082;2023-03-01T01:26:16;-3.40;99.90
3156;DHT22;1588;50.892;7.082;2023-03-01T01:31:20;-3.50;99.90
3156;DHT22;1588;50.892;7.082;2023-03-01T01:36:24;-3.50;99.90
3156;DHT22;1588;50.892;7.082;2023-03-01T01:41:29;-3.50;99.90
3156;DHT22;1588;50.892;7.082;2023-03-01T01:46:32;-3.50;99.90
3156;DHT22;1588;50.892;7.082;2023-03-01T01:51:40;-3.60;99.90
3156;DHT22;1588;50.892;7.082;2023-03-01T01:56:48;-3.60;99.90
3156;DHT22;1588;50.892;7.082;2023-03-01T02:01:53;-3.60;99.90
3156;DHT22;1588;50.892;7.082;2023-03-01T02:06:59;-3.60;99.90
3156;DHT22;1588;50.892;7.082;2023-03-01T02:12:04;-3.70;99.90
3156;DHT22;1588;50.892;7.082;2023-03-01T02:17:09;-3.80;99.90
3156;DHT22;1588;50.892;7.082;2023-03-01T02:22:19;-3.80;99.90
3156;DHT22;1588;50.892;7.082;2023-03-01T02:27:28;-3.80;99.90
3156;DHT22;1588;50.892;7.082;2023-03-01T02:32:38;-3.80;99.90
3156;DHT22;1588;50.892;7.082;2023-03-01T02:37:43;-3.70;99.90
3156;DHT22;1588;50.892;7.082;2023-03-01T02:42:49;-3.80;99.90
3156;DHT22;1588;50.892;7.082;2023-03-01T02:47:55;-3.90;99.90
3156;DHT22;1588;50.892;7.082;2023-03-01T02:53:01;-4.00;99.90
3156;DHT22;1588;50.892;7.082;2023-03-01T02:58:04;-4.10;99.90
3156;DHT22;1588;50.892;7.082;2023-03-01T03:03:10;-4.10;99.90
3156;DHT22;1588;50.892;7.082;2023-03-01T03:08:15;-4.20;99.90
3156;DHT22;1588;50.892;7.082;2023-03-01T03:13:24;-4.30;99.90
3156;DHT22;1588;50.892;7.082;2023-03-01T03:18:30;-4.30;99.90
3156;DHT22;1588;50.892;7.082;2023-03-01T03:23:32;-4.30;99.90
3156;DHT22;1588;50.892;7.082;2023-03-01T03:28:36;-4.40;99.90
3156;DHT22;1588;50.892;7.082;2023-03-01T03:33:42;-4.40;99.90
3156;DHT22;1588;50.892;7.082;2023-03-01T03:38:44;-4.40;99.90
3156;DHT22;1588;50.892;7.082;2023-03-01T03:43:47;-4.40;99.90
3156;DHT22;1588;50.892;7.082;2023-03-01T03:48:51;-4.40;99.90
3156;DHT22;1588;50.892;7.082;2023-03-01T03:53:53;-4.40;99.90
3156;DHT22;1588;50.892;7.082;2023-03-01T03:58:55;-4.40;99.90
3156;DHT22;1588;50.892;7.082;2023-03-01T04:03:59;-4.50;99.90
3156;DHT22;1588;50.892;7.082;2023-03-01T04:09:07;-4.50;99.90
3156;DHT22;1588;50.892;7.082;2023-03-01T04:14:09;-4.50;99.90
3156;DHT22;1588;50.892;7.082;2023-03-01T04:19:13;-4.50;99.90
3156;DHT22;1588;50.892;7.082;2023-03-01T04:24:23;-4.60;99.90
3156;DHT22;1588;50.892;7.082;2023-03-01T04:29:26;-4.60;99.90
3156;DHT22;1588;50.892;7.082;2023-03-01T04:34:30;-4.70;99.90
3156;DHT22;1588;50.892;7.082;2023-03-01T04:39:32;-4.80;99.90
3156;DHT22;1588;50.892;7.082;2023-03-01T04:44:34;-4.80;99.90
3156;DHT22;1588;50.892;7.082;2023-03-01T04:49:38;-4.80;99.90
3156;DHT22;1588;50.892;7.082;2023-03-01T04:54:40;-4.90;99.90
3156;DHT22;1588;50.892;7.082;2023-03-01T04:59:44;-4.90;99.90
3156;DHT22;1588;50.892;7.082;2023-03-01T05:04:47;-4.90;99.90
3156;DHT22;1588;50.892;7.082;2023-03-01T05:09:49;-4.90;99.90
3156;DHT22;1588;50.892;7.082;2023-03-01T05:14:51;-4.90;99.90
3156;DHT22;1588;50.892;7.082;2023-03-01T05:19:55;-5.00;99.90
3156;DHT22;1588;50.892;7.082;2023-03-01T05:25:00;-5.00;99.90
3156;DHT22;1588;50.892;7.082;2023-03-01T05:30:03;-5.00;99.90
3156;DHT22;1588;50.892;7.082;2023-03-01T05:35:17;-5.00;99.90
3156;DHT22;1588;50.892;7.082;2023-03-01T05:40:23;-5.10;99.90
3156;DHT22;1588;50.892;7.082;2023-03-01T05:45:27;-5.10;99.90
3156;DHT22;1588;50.892;7.082;2023-03-01T05:50:33;-5.10;99.90
3156;DHT22;1588;50.892;7.082;2023-03-01T05:55:37;-5.00;99.90
3156;DHT22;1588;50.892;7.082;2023-03-01T06:00:39;-5.10;99.90
3156;DHT22;1588;50.892;7.082;2023-03-01T06:05:44;-5.10;99.90
3156;DHT22;1588;50.892;7.082;2023-03-01T06:10:46;-5.20;99.90
3156;DHT22;1588;50.892;7.082;2023-03-01T06:15:49;-5.30;99.90
3156;DHT22;1588;50.892;7.082;2023-03-01T06:20:56;-5.30;99.90
3156;DHT22;1588;50.892;7.082;2023-03-01T06:25:58;-5.30;99.90
3156;DHT22;1588;50.892;7.082;2023-03-01T06:31:10;-5.30;99.90
3156;DHT22;1588;50.892;7.082;2023-03-01T06:36:14;-5.20;99.90
3156;DHT22;1588;50.892;7.082;2023-03-01T06:41:19;-5.20;99.90
3156;DHT22;1588;50.892;7.082;2023-03-01T06:46:22;-5.00;99.90
3156;DHT22;1588;50.892;7.082;2023-03-01T06:51:26;-5.00;99.90
3156;DHT22;1588;50.892;7.082;2023-03-01T06:56:28;-5.00;99.90
3156;DHT22;1588;50.892;7.082;2023-03-01T07:01:31;-4.90;99.90
3156;DHT22;1588;50.892;7.082;2023-03-01T07:06:35;-4.80;99.90
3156;DHT22;1588;50.892;7.082;2023-03-01T07:11:37;-4.70;99.90
3156;DHT22;1588;50.892;7.082;2023-03-01T07:16:39;-4.50;99.90
3156;DHT22;1588;50.892;7.082;2023-03-01T07:21:42;-4.30;99.90
3156;DHT22;1588;50.892;7.082;2023-03-01T07:26:48;-4.20;99.90
3156;DHT22;1588;50.892;7.082;2023-03-01T07:31:50;-4.10;99.90
3156;DHT22;1588;50.892;7.082;2023-03-01T07:36:54;-3.90;99.90
3156;DHT22;1588;50.892;7.082;2023-03-01T07:41:56;-3.70;99.90
3156;DHT22;1588;50.892;7.082;2023-03-01T07:46:58;-3.40;99.90
3156;DHT22;1588;50.892;7.082;2023-03-01T07:52:02;-3.00;99.90
3156;DHT22;1588;50.892;7.082;2023-03-01T07:57:04;-2.60;99.90
3156;DHT22;1588;50.892;7.082;2023-03-01T08:02:08;1.00;99.90
3156;DHT22;1588;50.892;7.082;2023-03-01T08:07:12;7.30;99.90
3156;DHT22;1588;50.892;7.082;2023-03-01T08:12:15;10.00;99.90
3156;DHT22;1588;50.892;7.082;2023-03-01T08:17:18;11.30;99.90
3156;DHT22;1588;50.892;7.082;2023-03-01T08:22:21;12.80;98.10
3156;DHT22;1588;50.892;7.082;2023-03-01T08:27:23;13.60;96.80
3156;DHT22;1588;50.892;7.082;2023-03-01T08:32:26;14.70;93.30
3156;DHT22;1588;50.892;7.082;2023-03-01T08:37:29;15.00;92.50
3156;DHT22;1588;50.892;7.082;2023-03-01T08:42:34;15.40;91.30
3156;DHT22;1588;50.892;7.082;2023-03-01T08:47:36;15.10;87.90
3156;DHT22;1588;50.892;7.082;2023-03-01T08:52:40;15.60;86.30
3156;DHT22;1588;50.892;7.082;2023-03-01T08:57:42;13.90;81.90
3156;DHT22;1588;50.892;7.082;2023-03-01T09:02:44;15.10;82.90
3156;DHT22;1588;50.892;7.082;2023-03-01T09:07:48;14.60;80.70
3156;DHT22;1588;50.892;7.082;2023-03-01T09:12:54;14.60;83.10
3156;DHT22;1588;50.892;7.082;2023-03-01T09:17:57;14.40;80.40
3156;DHT22;1588;50.892;7.082;2023-03-01T09:23:01;14.50;82.00
3156;DHT22;1588;50.892;7.082;2023-03-01T09:28:04;15.60;80.80
3156;DHT22;1588;50.892;7.082;2023-03-01T09:33:06;15.80;79.00
3156;DHT22;1588;50.892;7.082;2023-03-01T09:38:11;14.00;78.00
3156;DHT22;1588;50.892;7.082;2023-03-01T09:43:22;14.80;80.00
3156;DHT22;1588;50.892;7.082;2023-03-01T09:48:27;16.10;76.70
3156;DHT22;1588;50.892;7.082;2023-03-01T09:53:33;16.10;77.10
3156;DHT22;1588;50.892;7.082;2023-03-01T09:58:46;15.90;75.30
3156;DHT22;1588;50.892;7.082;2023-03-01T10:04:12;12.40;75.40
3156;DHT22;1588;50.892;7.082;2023-03-01T10:09:23;13.20;80.70
3156;DHT22;1588;50.892;7.082;2023-03-01T10:14:34;14.50;80.10
3156;DHT22;1588;50.892;7.082;2023-03-01T10:19:42;13.80;78.10
3156;DHT22;1588;50.892;7.082;2023-03-01T10:24:46;13.50;77.50
3156;DHT22;1588;50.892;7.082;2023-03-01T10:29:52;14.70;79.30
3156;DHT22;1588;50.892;7.082;2023-03-01T10:34:59;13.00;78.00
3156;DHT22;1588;50.892;7.082;2023-03-01T10:40:05;14.30;77.80
3156;DHT22;1588;50.892;7.082;2023-03-01T10:45:33;14.50;78.40
3156;DHT22;1588;50.892;7.082;2023-03-01T10:50:36;14.70;77.10
3156;DHT22;1588;50.892;7.082;2023-03-01T10:55:42;14.20;74.50
3156;DHT22;1588;50.892;7.082;2023-03-01T11:00:48;13.80;75.90
3156;DHT22;1588;50.892;7.082;2023-03-01T11:05:54;13.00;77.30
3156;DHT22;1588;50.892;7.082;2023-03-01T11:11:08;13.00;80.70
3156;DHT22;1588;50.892;7.082;2023-03-01T11:16:15;10.80;83.70
3156;DHT22;1588;50.892;7.082;2023-03-01T11:21:25;9.00;88.30
3156;DHT22;1588;50.892;7.082;2023-03-01T11:26:31;8.70;91.20
3156;DHT22;1588;50.892;7.082;2023-03-01T11:31:36;8.40;91.80
3156;DHT22;1588;50.892;7.082;2023-03-01T11:36:41;8.40;91.80
3156;DHT22;1588;50.892;7.082;2023-03-01T11:41:52;9.70;88.60
3156;DHT22;1588;50.892;7.082;2023-03-01T11:47:10;9.80;87.40
3156;DHT22;1588;50.892;7.082;2023-03-01T11:52:39;10.70;84.70
3156;DHT22;1588;50.892;7.082;2023-03-01T11:58:02;10.30;84.20
3156;DHT22;1588;50.892;7.082;2023-03-01T12:03:27;11.00;86.00
3156;DHT22;1588;50.892;7.082;2023-03-01T12:08:35;11.00;83.40
3156;DHT22;1588;50.892;7.082;2023-03-01T12:14:01;10.80;83.00
3156;DHT22;1588;50.892;7.082;2023-03-01T12:19:28;10.20;84.40
3156;DHT22;1588;50.892;7.082;2023-03-01T12:24:52;9.90;86.50
3156;DHT22;1588;50.892;7.082;2023-03-01T12:30:09;9.90;88.10
3156;DHT22;1588;50.892;7.082;2023-03-01T12:35:33;10.10;86.90
3156;DHT22;1588;50.892;7.082;2023-03-01T12:40:51;10.30;86.50
3156;DHT22;1588;50.892;7.082;2023-03-01T12:46:05;9.80;87.20
3156;DHT22;1588;50.892;7.082;2023-03-01T12:51:14;9.50;86.70
3156;DHT22;1588;50.892;7.082;2023-03-01T12:56:19;9.30;89.30
3156;DHT22;1588;50.892;7.082;2023-03-01T13:01:33;9.30;86.80
3156;DHT22;1588;50.892;7.082;2023-03-01T13:06:41;9.10;88.60
3156;DHT22;1588;50.892;7.082;2023-03-01T13:11:45;8.90;90.10
3156;DHT22;1588;50.892;7.082;2023-03-01T13:16:49;8.80;90.70
3156;DHT22;1588;50.892;7.082;2023-03-01T13:21:53;8.80;89.60
3156;DHT22;1588;50.892;7.082;2023-03-01T13:27:21;8.90;87.60
3156;DHT22;1588;50.892;7.082;2023-03-01T13:32:27;8.90;88.10
3156;DHT22;1588;50.892;7.082;2023-03-01T13:37:36;9.00;90.20
3156;DHT22;1588;50.892;7.082;2023-03-01T13:42:43;8.90;86.20
3156;DHT22;1588;50.892;7.082;2023-03-01T13:47:53;9.00;87.20
3156;DHT22;1588;50.892;7.082;2023-03-01T13:52:57;9.10;86.20
3156;DHT22;1588;50.892;7.082;2023-03-01T13:58:05;9.10;90.60
3156;DHT22;1588;50.892;7.082;2023-03-01T14:03:17;9.00;90.90
3156;DHT22;1588;50.892;7.082;2023-03-01T14:08:22;9.10;91.80
3156;DHT22;1588;50.892;7.082;2023-03-01T14:13:35;9.10;91.60
3156;DHT22;1588;50.892;7.082;2023-03-01T14:18:49;9.10;91.00
3156;DHT22;1588;50.892;7.082;2023-03-01T14:23:53;9.10;92.20
3156;DHT22;1588;50.892;7.082;2023-03-01T14:28:56;8.90;91.30
3156;DHT22;1588;50.892;7.082;2023-03-01T14:34:16;8.80;92.00
3156;DHT22;1588;50.892;7.082;2023-03-01T14:39:24;9.00;91.30
3156;DHT22;1588;50.892;7.082;2023-03-01T14:44:27;9.10;91.40
3156;DHT22;1588;50.892;7.082;2023-03-01T14:49:34;9.10;90.00
3156;DHT22;1588;50.892;7.082;2023-03-01T14:54:41;9.10;90.30
3156;DHT22;1588;50.892;7.082;2023-03-01T14:59:47;9.10;91.40
3156;DHT22;1588;50.892;7.082;2023-03-01T15:04:55;9.00;92.60
3156;DHT22;1588;50.892;7.082;2023-03-01T15:09:59;9.00;94.60
3156;DHT22;1588;50.892;7.082;2023-03-01T15:15:19;8.80;95.90
3156;DHT22;1588;50.892;7.082;2023-03-01T15:20:24;8.70;94.50
3156;DHT22;1588;50.892;7.082;2023-03-01T15:25:29;8.60;95.50
3156;DHT22;1588;50.892;7.082;2023-03-01T15:30:35;8.50;95.70
3156;DHT22;1588;50.892;7.082;2023-03-01T15:35:43;8.50;97.40
3156;DHT22;1588;50.892;7.082;2023-03-01T15:40:49;8.50;97.10
3156;DHT22;1588;50.892;7.082;2023-03-01T15:45:56;8.30;96.70
3156;DHT22;1588;50.892;7.082;2023-03-01T15:51:00;8.20;97.60
3156;DHT22;1588;50.892;7.082;2023-03-01T15:56:04;8.10;97.50
3156;DHT22;1588;50.892;7.082;2023-03-01T16:01:11;8.00;96.90
3156;DHT22;1588;50.892;7.082;2023-03-01T16:06:15;7.90;97.60
3156;DHT22;1588;50.892;7.082;2023-03-01T16:11:20;7.90;97.80
3156;DHT22;1588;50.892;7.082;2023-03-01T16:16:22;7.70;97.70
3156;DHT22;1588;50.892;7.082;2023-03-01T16:21:26;7.80;97.10
3156;DHT22;1588;50.892;7.082;2023-03-01T16:26:30;7.80;95.90
3156;DHT22;1588;50.892;7.082;2023-03-01T16:31:33;7.70;95.90
3156;DHT22;1588;50.892;7.082;2023-03-01T16:36:37;7.60;96.00
3156;DHT22;1588;50.892;7.082;2023-03-01T16:41:39;7.50;95.60
3156;DHT22;1588;50.892;7.082;2023-03-01T16:46:42;7.30;96.60
3156;DHT22;1588;50.892;7.082;2023-03-01T16:51:53;7.10;95.70
3156;DHT22;1588;50.892;7.082;2023-03-01T16:57:05;7.10;96.80
3156;DHT22;1588;50.892;7.082;2023-03-01T17:02:10;6.90;97.90
3156;DHT22;1588;50.892;7.082;2023-03-01T17:07:14;6.70;98.10
3156;DHT22;1588;50.892;7.082;2023-03-01T17:12:27;6.60;98.00
3156;DHT22;1588;50.892;7.082;2023-03-01T17:17:29;6.30;98.80
3156;DHT22;1588;50.892;7.082;2023-03-01T17:22:33;6.10;99.40
3156;DHT22;1588;50.892;7.082;2023-03-01T17:27:37;5.90;99.70
3156;DHT22;1588;50.892;7.082;2023-03-01T17:32:40;5.60;99.90
3156;DHT22;1588;50.892;7.082;2023-03-01T17:37:44;5.30;99.90
3156;DHT22;1588;50.892;7.082;2023-03-01T17:42:47;5.20;99.90
3156;DHT22;1588;50.892;7.082;2023-03-01T17:47:49;5.00;99.90
3156;DHT22;1588;50.892;7.082;2023-03-01T17:52:53;4.90;99.90
3156;DHT22;1588;50.892;7.082;2023-03-01T17:57:56;4.80;99.90
3156;DHT22;1588;50.892;7.082;2023-03-01T18:02:58;4.60;99.90
3156;DHT22;1588;50.892;7.082;2023-03-01T18:08:02;4.40;99.90
3156;DHT22;1588;50.892;7.082;2023-03-01T18:13:05;4.10;99.90
3156;DHT22;1588;50.892;7.082;2023-03-01T18:18:12;3.80;99.90
3156;DHT22;1588;50.892;7.082;2023-03-01T18:23:15;3.70;99.90
3156;DHT22;1588;50.892;7.082;2023-03-01T18:28:17;3.70;99.90
3156;DHT22;1588;50.892;7.082;2023-03-01T18:33:20;3.60;99.90
3156;DHT22;1588;50.892;7.082;2023-03-01T18:38:24;3.70;99.90
3156;DHT22;1588;50.892;7.082;2023-03-01T18:43:26;3.60;99.90
3156;DHT22;1588;50.892;7.082;2023-03-01T18:48:28;3.40;99.90
3156;DHT22;1588;50.892;7.082;2023-03-01T18:53:32;3.20;99.90
3156;DHT22;1588;50.892;7.082;2023-03-01T18:58:35;3.20;99.90
3156;DHT22;1588;50.892;7.082;2023-03-01T19:03:38;3.10;99.90
3156;DHT22;1588;50.892;7.082;2023-03-01T19:08:42;2.90;99.90
3156;DHT22;1588;50.892;7.082;2023-03-01T19:13:45;2.90;99.90
3156;DHT22;1588;50.892;7.082;2023-03-01T19:18:54;2.70;99.90
3156;DHT22;1588;50.892;7.082;2023-03-01T19:23:59;2.50;99.90
3156;DHT22;1588;50.892;7.082;2023-03-01T19:29:02;2.20;99.90
3156;DHT22;1588;50.892;7.082;2023-03-01T19:34:06;1.90;99.90
3156;DHT22;1588;50.892;7.082;2023-03-01T19:39:10;1.60;99.90
3156;DHT22;1588;50.892;7.082;2023-03-01T19:44:13;1.50;99.90
3156;DHT22;1588;50.892;7.082;2023-03-01T19:49:15;1.30;99.90
3156;DHT22;1588;50.892;7.082;2023-03-01T19:54:19;1.20;99.90
3156;DHT22;1588;50.892;7.082;2023-03-01T19:59:22;1.00;99.90
3156;DHT22;1588;50.892;7.082;2023-03-01T20:04:25;0.90;99.90
3156;DHT22;1588;50.892;7.082;2023-03-01T20:09:29;0.90;99.90
3156;DHT22;1588;50.892;7.082;2023-03-01T20:14:31;1.00;99.90
3156;DHT22;1588;50.892;7.082;2023-03-01T20:19:43;1.00;99.90
3156;DHT22;1588;50.892;7.082;2023-03-01T20:24:47;0.80;99.90
3156;DHT22;1588;50.892;7.082;2023-03-01T20:29:49;0.60;99.90
3156;DHT22;1588;50.892;7.082;2023-03-01T20:34:51;0.40;99.90
3156;DHT22;1588;50.892;7.082;2023-03-01T20:39:57;0.40;99.90
3156;DHT22;1588;50.892;7.082;2023-03-01T20:45:06;0.30;99.90
3156;DHT22;1588;50.892;7.082;2023-03-01T20:50:15;0.40;99.90
3156;DHT22;1588;50.892;7.082;2023-03-01T20:55:20;0.40;99.90
3156;DHT22;1588;50.892;7.082;2023-03-01T21:00:22;0.30;99.90
3156;DHT22;1588;50.892;7.082;2023-03-01T21:05:24;0.20;99.90
3156;DHT22;1588;50.892;7.082;2023-03-01T21:10:35;-0.10;99.90
3156;DHT22;1588;50.892;7.082;2023-03-01T21:15:54;-0.20;99.90
3156;DHT22;1588;50.892;7.082;2023-03-01T21:21:04;-0.30;99.90
3156;DHT22;1588;50.892;7.082;2023-03-01T21:26:10;-0.40;99.90
3156;DHT22;1588;50.892;7.082;2023-03-01T21:31:15;-0.30;99.90
3156;DHT22;1588;50.892;7.082;2023-03-01T21:36:19;-0.40;99.90
3156;DHT22;1588;50.892;7.082;2023-03-01T21:41:24;-0.50;99.90
3156;DHT22;1588;50.892;7.082;2023-03-01T21:46:32;-0.50;99.90
3156;DHT22;1588;50.892;7.082;2023-03-01T21:51:41;-0.60;99.90
3156;DHT22;1588;50.892;7.082;2023-03-01T21:57:06;-0.70;99.90
3156;DHT22;1588;50.892;7.082;2023-03-01T22:02:14;-0.80;99.90
3156;DHT22;1588;50.892;7.082;2023-03-01T22:07:17;-0.70;99.90
3156;DHT22;1588;50.892;7.082;2023-03-01T22:12:21;-0.80;99.90
3156;DHT22;1588;50.892;7.082;2023-03-01T22:17:23;-0.80;99.90
3156;DHT22;1588;50.892;7.082;2023-03-01T22:22:25;-0.90;99.90
3156;DHT22;1588;50.892;7.082;2023-03-01T22:27:29;-1.00;99.90
3156;DHT22;1588;50.892;7.082;2023-03-01T22:32:31;-1.10;99.90
3156;DHT22;1588;50.892;7.082;2023-03-01T22:37:34;-1.20;99.90
3156;DHT22;1588;50.892;7.082;2023-03-01T22:42:37;-1.20;99.90
3156;DHT22;1588;50.892;7.082;2023-03-01T22:47:40;-1.30;99.90
3156;DHT22;1588;50.892;7.082;2023-03-01T22:52:42;-1.30;99.90
3156;DHT22;1588;50.892;7.082;2023-03-01T22:57:48;-1.30;99.90
3156;DHT22;1588;50.892;7.082;2023-03-01T23:02:51;-1.40;99.90
3156;DHT22;1588;50.892;7.082;2023-03-01T23:07:53;-1.50;99.90
3156;DHT22;1588;50.892;7.082;2023-03-01T23:12:57;-1.50;99.90
3156;DHT22;1588;50.892;7.082;2023-03-01T23:18:02;-1.60;99.90
3156;DHT22;1588;50.892;7.082;2023-03-01T23:23:04;-1.60;99.90
3156;DHT22;1588;50.892;7.082;2023-03-01T23:28:10;-1.70;99.90
3156;DHT22;1588;50.892;7.082;2023-03-01T23:33:15;-1.60;99.90
3156;DHT22;1588;50.892;7.082;2023-03-01T23:38:17;-1.70;99.90
3156;DHT22;1588;50.892;7.082;2023-03-01T23:43:22;-1.70;99.90
3156;DHT22;1588;50.892;7.082;2023-03-01T23:48:28;-1.80;99.90
3156;DHT22;1588;50.892;7.082;2023-03-01T23:53:32;-1.80;99.90
3156;DHT22;1588;50.892;7.082;2023-03-01T23:58:41;-1.80;99.90
